createdAt,value
2018-06-20T00:00:08.413Z,15.20
2018-06-20T00:02:36.893Z,15.10
2018-06-20T00:05:05.350Z,15.10
2018-06-20T00:07:33.853Z,15.10
2018-06-20T00:10:02.313Z,15.10
2018-06-20T00:12:30.841Z,15.10
2018-06-20T00:14:59.355Z,15.00
2018-06-20T00:22:24.277Z,15.00
2018-06-20T00:27:20.909Z,14.90
2018-06-20T00:29:49.343Z,14.80
2018-06-20T00:32:17.838Z,14.80
2018-06-20T00:34:46.307Z,14.90
2018-06-20T00:37:14.778Z,14.90
2018-06-20T00:39:43.244Z,14.90
2018-06-20T00:42:11.720Z,14.90
2018-06-20T00:44:40.197Z,14.80
2018-06-20T00:47:08.679Z,14.70
2018-06-20T00:49:37.142Z,14.70
2018-06-20T00:52:05.621Z,14.70
2018-06-20T00:54:34.090Z,14.70
2018-06-20T00:57:02.617Z,14.70
2018-06-20T00:59:31.085Z,14.70
2018-06-20T01:01:59.573Z,14.70
2018-06-20T01:04:28.014Z,14.70
2018-06-20T01:06:56.509Z,14.70
2018-06-20T01:09:24.995Z,14.70
2018-06-20T01:11:53.580Z,14.70
2018-06-20T01:14:21.972Z,14.60
2018-06-20T01:16:50.429Z,14.60
2018-06-20T01:19:18.941Z,14.60
2018-06-20T01:21:47.407Z,14.60
2018-06-20T01:24:15.897Z,14.50
2018-06-20T01:26:44.361Z,14.50
2018-06-20T01:29:12.860Z,14.50
2018-06-20T01:31:41.301Z,14.50
2018-06-20T01:34:09.778Z,14.50
2018-06-20T01:36:38.237Z,14.50
2018-06-20T01:41:36.071Z,14.50
2018-06-20T01:44:04.807Z,14.50
2018-06-20T01:46:33.285Z,14.40
2018-06-20T03:39:51.710Z,13.70
2018-06-20T03:42:20.110Z,13.70
2018-06-20T03:44:48.539Z,13.80
2018-06-20T03:49:45.064Z,13.90
2018-06-20T03:52:13.487Z,13.90
2018-06-20T03:54:41.921Z,14.00
2018-06-20T03:57:10.334Z,13.90
2018-06-20T03:59:38.765Z,13.90
2018-06-20T04:02:07.190Z,13.90
2018-06-20T04:07:03.817Z,13.90
2018-06-20T04:09:32.269Z,13.90
2018-06-20T04:12:00.680Z,14.00
2018-06-20T04:14:29.085Z,14.10
2018-06-20T04:16:57.516Z,14.10
2018-06-20T04:19:25.948Z,14.10
2018-06-20T04:21:54.386Z,14.10
2018-06-20T04:24:22.838Z,14.20
2018-06-20T04:26:51.261Z,14.20
2018-06-20T04:29:19.674Z,14.30
2018-06-20T04:31:48.090Z,14.30
2018-06-20T04:34:16.541Z,14.40
2018-06-20T04:36:45.007Z,14.50
2018-06-20T04:39:13.429Z,14.60
2018-06-20T04:41:41.882Z,14.70
2018-06-20T04:44:10.528Z,14.70
2018-06-20T04:46:39.077Z,14.80
2018-06-20T04:49:07.503Z,14.90
2018-06-20T04:54:04.101Z,15.00
2018-06-20T04:56:32.549Z,15.10
2018-06-20T04:59:00.981Z,15.20
2018-06-20T05:01:29.412Z,15.30
2018-06-20T05:03:57.841Z,15.40
2018-06-20T05:06:26.271Z,15.50
2018-06-20T05:08:54.701Z,15.60
2018-06-20T05:11:23.130Z,15.70
2018-06-20T05:13:51.555Z,15.80
2018-06-20T05:16:20.001Z,15.80
2018-06-20T05:18:48.426Z,15.80
2018-06-20T05:21:16.841Z,15.90
2018-06-20T05:23:45.276Z,16.00
2018-06-20T05:26:13.722Z,16.10
2018-06-20T05:28:47.386Z,16.20
2018-06-20T05:31:15.781Z,16.30
2018-06-20T05:33:44.198Z,16.50
2018-06-20T05:36:12.629Z,16.50
2018-06-20T05:41:09.219Z,16.80
2018-06-20T05:43:37.631Z,16.90
2018-06-20T05:48:34.239Z,17.10
2018-06-20T05:51:02.691Z,17.20
2018-06-20T05:53:31.473Z,17.30
2018-06-20T05:55:59.912Z,17.50
2018-06-20T05:58:28.327Z,17.60
2018-06-20T06:00:56.769Z,17.70
2018-06-20T06:03:25.215Z,17.80
2018-06-20T06:06:14.980Z,17.90
2018-06-20T06:08:43.976Z,18.10
2018-06-20T06:11:12.453Z,18.20
2018-06-20T06:13:40.909Z,18.30
2018-06-20T06:16:09.361Z,18.50
2018-06-20T06:18:37.882Z,18.70
2018-06-20T06:21:06.809Z,18.90
2018-06-20T06:23:35.243Z,19.10
2018-06-20T06:28:31.854Z,19.30
2018-06-20T06:31:00.286Z,19.60
2018-06-20T06:33:28.726Z,19.60
2018-06-20T06:35:57.166Z,19.70
2018-06-20T06:38:25.630Z,19.80
2018-06-20T06:40:54.075Z,19.90
2018-06-20T06:43:22.507Z,20.00
2018-06-20T06:45:50.915Z,20.00
2018-06-20T06:48:19.349Z,20.10
2018-06-20T06:50:47.761Z,20.20
2018-06-20T06:53:16.176Z,20.30
2018-06-20T06:55:44.581Z,20.40
2018-06-20T06:58:12.989Z,20.50
2018-06-20T07:00:41.409Z,20.60
2018-06-20T07:03:09.843Z,20.80
2018-06-20T07:05:38.252Z,20.90
2018-06-20T07:08:06.713Z,21.00
2018-06-20T07:10:35.145Z,21.20
2018-06-20T07:13:03.595Z,21.20
2018-06-20T07:15:32.075Z,21.30
2018-06-20T07:18:00.501Z,21.40
2018-06-20T07:20:29.003Z,21.40
2018-06-20T07:22:57.430Z,21.50
2018-06-20T07:25:25.878Z,21.60
2018-06-20T07:27:54.276Z,21.80
2018-06-20T07:30:22.721Z,22.00
2018-06-20T07:32:51.125Z,21.80
2018-06-20T07:35:19.656Z,22.00
2018-06-20T07:37:48.022Z,22.10
2018-06-20T07:42:44.594Z,21.60
2018-06-20T07:45:13.056Z,21.80
2018-06-20T07:47:41.477Z,22.10
2018-06-20T07:50:09.907Z,22.20
2018-06-20T07:55:06.463Z,22.60
2018-06-20T08:00:08.448Z,22.40
2018-06-20T08:02:53.598Z,22.40
2018-06-20T08:08:00.901Z,23.00
2018-06-20T08:10:34.614Z,23.10
2018-06-20T08:18:16.078Z,23.40
2018-06-20T08:20:44.527Z,23.20
2018-06-20T08:23:12.932Z,23.40
2018-06-20T08:25:41.502Z,23.50
2018-06-20T08:28:09.862Z,23.60
2018-06-20T08:30:38.300Z,23.70
2018-06-20T08:33:06.717Z,23.40
2018-06-20T08:35:35.161Z,23.20
2018-06-20T08:38:03.609Z,23.40
2018-06-20T08:40:32.009Z,23.60
2018-06-20T08:43:00.469Z,23.70
2018-06-20T08:45:28.938Z,23.80
2018-06-20T08:47:57.353Z,23.80
2018-06-20T08:50:25.766Z,23.90
2018-06-20T08:55:22.331Z,23.90
2018-06-20T08:57:50.746Z,24.00
2018-06-20T09:00:24.552Z,24.00
2018-06-20T09:02:52.999Z,24.10
2018-06-20T09:05:26.707Z,24.00
2018-06-20T09:08:00.419Z,23.80
2018-06-20T09:10:34.209Z,24.00
2018-06-20T09:13:07.927Z,24.50
2018-06-20T09:15:41.685Z,25.10
2018-06-20T09:20:43.813Z,26.00
2018-06-20T09:23:12.420Z,25.80
2018-06-20T09:25:40.875Z,24.90
2018-06-20T09:28:09.441Z,24.90
2018-06-20T09:30:38.054Z,25.50
2018-06-20T09:33:06.549Z,25.80
2018-06-20T09:35:34.977Z,25.80
2018-06-20T09:38:03.435Z,26.20
2018-06-20T09:40:31.858Z,26.60
2018-06-20T09:43:00.314Z,26.90
2018-06-20T09:45:28.853Z,26.60
2018-06-20T09:47:57.303Z,25.60
2018-06-20T09:50:31.108Z,26.00
2018-06-20T09:52:59.546Z,26.10
2018-06-20T09:57:56.157Z,26.50
2018-06-20T10:03:03.395Z,27.20
2018-06-20T10:05:37.259Z,27.00
2018-06-20T10:08:11.069Z,26.10
2018-06-20T10:10:44.817Z,26.50
2018-06-20T10:15:43.934Z,27.20
2018-06-20T10:18:12.357Z,26.90
2018-06-20T10:20:40.794Z,27.30
2018-06-20T10:23:09.245Z,27.60
2018-06-20T10:25:37.698Z,28.80
2018-06-20T10:28:06.123Z,29.50
2018-06-20T10:33:02.654Z,29.10
2018-06-20T10:35:31.099Z,29.40
2018-06-20T10:37:59.476Z,29.90
2018-06-20T10:40:27.926Z,29.60
2018-06-20T10:42:56.310Z,30.40
2018-06-20T10:45:30.143Z,31.10
2018-06-20T10:47:58.557Z,30.80
2018-06-20T10:50:27.030Z,31.80
2018-06-20T10:52:55.426Z,32.10
2018-06-20T10:55:23.846Z,32.30
2018-06-20T10:57:57.613Z,32.10
2018-06-20T11:03:04.822Z,30.90
2018-06-20T11:05:38.664Z,32.20
2018-06-20T11:08:12.532Z,31.60
2018-06-20T11:13:15.565Z,32.50
2018-06-20T11:15:44.846Z,33.10
2018-06-20T11:18:13.258Z,33.30
2018-06-20T11:20:47.110Z,33.30
2018-06-20T11:23:15.599Z,33.10
2018-06-20T11:25:44.022Z,32.70
2018-06-20T11:28:14.622Z,31.80
2018-06-20T11:30:44.351Z,32.20
2018-06-20T11:33:12.929Z,31.30
2018-06-20T11:35:41.426Z,30.90
2018-06-20T11:38:09.865Z,31.20
2018-06-20T11:43:06.572Z,32.30
2018-06-20T11:45:40.237Z,32.70
2018-06-20T11:48:08.729Z,33.30
2018-06-20T11:50:37.147Z,32.00
2018-06-20T11:53:10.619Z,30.30
2018-06-20T11:55:41.218Z,30.50
2018-06-20T11:58:15.128Z,30.10
2018-06-20T12:00:48.757Z,29.70
2018-06-20T12:03:22.400Z,29.70
2018-06-20T12:05:56.274Z,30.80
2018-06-20T12:08:29.944Z,31.60
2018-06-20T12:11:03.671Z,30.90
2018-06-20T12:13:37.242Z,30.90
2018-06-20T12:16:11.153Z,29.90
2018-06-20T12:18:44.893Z,29.90
2018-06-20T12:21:18.567Z,30.80
2018-06-20T12:23:52.453Z,30.60
2018-06-20T12:28:59.833Z,29.20
2018-06-20T12:31:33.649Z,30.10
2018-06-20T12:34:07.515Z,30.60
2018-06-20T12:36:41.334Z,30.10
2018-06-20T12:39:08.949Z,30.50
2018-06-20T12:41:42.738Z,30.40
2018-06-20T12:47:47.838Z,31.10
2018-06-20T12:50:20.733Z,30.40
2018-06-20T12:52:49.933Z,30.20
2018-06-20T12:55:18.384Z,29.70
2018-06-20T12:57:46.841Z,30.00
2018-06-20T13:00:15.623Z,30.30
2018-06-20T13:02:44.450Z,30.30
2018-06-20T13:05:12.897Z,30.00
2018-06-20T13:10:09.539Z,31.20
2018-06-20T13:12:38.029Z,32.10
2018-06-20T13:17:34.570Z,33.10
2018-06-20T13:20:03.183Z,33.10
2018-06-20T13:22:31.638Z,32.70
2018-06-20T13:25:00.106Z,32.00
2018-06-20T13:27:33.937Z,30.80
2018-06-20T13:32:41.227Z,30.90
2018-06-20T13:35:15.091Z,30.50
2018-06-20T13:37:48.959Z,31.40
2018-06-20T13:40:22.816Z,32.60
2018-06-20T13:42:56.566Z,35.10
2018-06-20T13:45:30.330Z,37.00
2018-06-20T13:48:03.996Z,37.10
2018-06-20T13:50:32.581Z,35.50
2018-06-20T13:53:01.222Z,35.60
2018-06-20T14:00:26.173Z,37.50
2018-06-20T14:02:54.590Z,36.20
2018-06-20T14:05:23.048Z,36.10
2018-06-20T14:07:51.463Z,36.40
2018-06-20T14:10:19.893Z,36.00
2018-06-20T14:12:48.309Z,37.50
2018-06-20T14:15:16.722Z,39.20
2018-06-20T14:17:45.142Z,39.50
2018-06-20T14:20:18.906Z,39.10
2018-06-20T14:22:47.329Z,35.60
2018-06-20T14:25:15.758Z,37.00
2018-06-20T14:27:44.191Z,38.60
2018-06-20T14:30:16.804Z,38.30
2018-06-20T14:32:50.421Z,38.00
2018-06-20T14:35:24.221Z,37.90
2018-06-20T14:37:58.163Z,37.00
2018-06-20T14:40:31.809Z,37.80
2018-06-20T14:43:03.869Z,36.80
2018-06-20T14:46:35.293Z,36.40
2018-06-20T14:49:03.709Z,37.10
2018-06-20T14:51:32.136Z,38.70
2018-06-20T14:54:00.573Z,36.50
2018-06-20T14:56:29.019Z,37.20
2018-06-20T14:58:57.441Z,38.20
2018-06-20T15:01:25.884Z,37.30
2018-06-20T15:03:54.393Z,37.50
2018-06-20T15:06:22.845Z,36.90
2018-06-20T15:08:51.281Z,36.70
2018-06-20T15:13:47.853Z,38.20
2018-06-20T15:16:21.726Z,38.30
2018-06-20T15:18:50.160Z,36.10
2018-06-20T15:21:18.573Z,36.20
2018-06-20T15:23:47.056Z,37.40
2018-06-20T15:26:20.866Z,35.20
2018-06-20T15:28:54.683Z,35.80
2018-06-20T15:34:02.091Z,38.10
2018-06-20T15:36:35.908Z,38.80
2018-06-20T15:39:06.046Z,38.80
2018-06-20T15:41:34.444Z,38.60
2018-06-20T15:44:02.987Z,38.30
2018-06-20T15:48:59.490Z,36.80
2018-06-20T15:51:27.889Z,34.50
2018-06-20T15:53:56.348Z,33.10
2018-06-20T15:56:24.829Z,31.70
2018-06-20T15:58:53.307Z,30.30
2018-06-20T16:01:21.714Z,29.70
2018-06-20T16:03:50.141Z,29.20
2018-06-20T16:06:18.573Z,29.00
2018-06-20T16:08:52.336Z,29.00
2018-06-20T16:11:20.756Z,29.10
2018-06-20T16:13:49.177Z,29.30
2018-06-20T16:16:17.641Z,29.30
2018-06-20T16:18:51.345Z,29.70
2018-06-20T16:23:58.654Z,32.50
2018-06-20T16:26:32.340Z,31.60
2018-06-20T16:29:06.094Z,30.50
2018-06-20T16:31:34.530Z,29.70
2018-06-20T16:34:02.954Z,29.20
2018-06-20T16:36:31.401Z,28.60
2018-06-20T16:38:59.825Z,28.40
2018-06-20T16:41:28.266Z,28.30
2018-06-20T16:43:56.690Z,28.10
2018-06-20T16:46:25.145Z,28.00
2018-06-20T16:48:53.944Z,27.80
2018-06-20T16:51:22.343Z,27.50
2018-06-20T16:53:50.754Z,27.40
2018-06-20T16:56:19.197Z,27.40
2018-06-20T16:58:47.625Z,27.30
2018-06-20T17:01:21.441Z,27.20
2018-06-20T17:03:49.860Z,27.10
2018-06-20T17:06:18.372Z,27.10
2018-06-20T17:08:46.717Z,27.20
2018-06-20T17:11:15.170Z,27.00
2018-06-20T17:13:48.970Z,26.90
2018-06-20T17:16:22.783Z,26.70
2018-06-20T17:18:56.630Z,26.50
2018-06-20T17:21:30.590Z,26.30
2018-06-20T17:24:04.171Z,26.20
2018-06-20T17:26:32.641Z,26.30
2018-06-20T17:29:01.089Z,26.30
2018-06-20T17:31:29.524Z,26.30
2018-06-20T17:33:57.953Z,26.20
2018-06-20T17:36:26.401Z,26.20
2018-06-20T17:38:54.853Z,26.10
2018-06-20T17:41:23.337Z,26.00
2018-06-20T17:43:51.762Z,25.90
2018-06-20T17:46:20.229Z,25.80
2018-06-20T17:48:48.650Z,25.80
2018-06-20T17:53:45.210Z,25.60
2018-06-20T17:56:13.622Z,25.50
2018-06-20T17:58:42.057Z,25.40
2018-06-20T18:01:11.931Z,25.40
2018-06-20T18:03:41.485Z,25.30
2018-06-20T18:06:15.226Z,25.30
2018-06-20T18:08:49.027Z,25.20
2018-06-20T18:12:20.371Z,25.10
2018-06-20T18:14:54.073Z,25.10
2018-06-20T18:17:22.755Z,24.90
2018-06-20T18:19:51.211Z,24.90
2018-06-20T18:22:19.673Z,24.80
2018-06-20T18:27:16.284Z,24.60
2018-06-20T18:29:45.043Z,24.50
2018-06-20T18:32:13.470Z,24.50
2018-06-20T18:34:41.957Z,24.30
2018-06-20T18:37:10.341Z,24.30
2018-06-20T18:39:44.185Z,24.20
2018-06-20T18:42:12.610Z,24.10
2018-06-20T18:44:41.089Z,24.10
2018-06-20T18:47:09.548Z,24.00
2018-06-20T18:49:38.009Z,23.90
2018-06-20T18:52:06.465Z,23.90
2018-06-20T18:54:34.919Z,23.80
2018-06-20T18:57:03.416Z,23.70
2018-06-20T18:59:37.306Z,23.60
2018-06-20T19:02:11.013Z,23.50
2018-06-20T19:04:44.686Z,23.40
2018-06-20T19:07:18.489Z,23.30
2018-06-20T19:09:46.983Z,23.20
2018-06-20T19:12:15.397Z,23.10
2018-06-20T19:14:43.845Z,23.10
2018-06-20T19:17:12.293Z,23.00
2018-06-20T19:19:40.717Z,22.90
2018-06-20T19:22:09.165Z,22.80
2018-06-20T19:24:37.583Z,22.70
2018-06-20T19:27:06.034Z,22.60
2018-06-20T19:29:34.494Z,22.50
2018-06-20T19:32:02.951Z,22.40
2018-06-20T19:34:31.365Z,22.30
2018-06-20T19:36:59.793Z,22.20
2018-06-20T19:39:33.709Z,22.10
2018-06-20T19:42:02.144Z,22.00
2018-06-20T19:44:33.038Z,22.00
2018-06-20T19:47:02.439Z,21.90
2018-06-20T19:49:30.901Z,21.80
2018-06-20T19:51:59.321Z,21.70
2018-06-20T19:54:27.793Z,21.70
2018-06-20T19:56:56.242Z,21.60
2018-06-20T19:59:25.531Z,21.60
2018-06-20T20:01:54.343Z,21.40
2018-06-20T20:04:23.208Z,21.30
2018-06-20T20:06:51.636Z,21.20
2018-06-20T20:09:20.075Z,21.20
2018-06-20T20:14:16.745Z,21.10
2018-06-20T20:16:45.191Z,21.10
2018-06-20T20:19:13.654Z,21.00
2018-06-20T20:21:42.082Z,21.00
2018-06-20T20:24:10.510Z,20.80
2018-06-20T20:26:38.958Z,20.70
2018-06-20T20:29:07.525Z,20.60
2018-06-20T20:31:35.932Z,20.60
2018-06-20T20:34:04.449Z,20.50
2018-06-20T20:36:32.833Z,20.50
2018-06-20T20:39:01.276Z,20.50
2018-06-20T20:41:29.734Z,20.50
2018-06-20T20:43:58.138Z,20.40
2018-06-20T20:46:26.547Z,20.30
2018-06-20T20:48:55.048Z,20.30
2018-06-20T20:51:23.473Z,20.20
2018-06-20T20:53:51.910Z,20.20
2018-06-20T20:58:48.441Z,20.00
2018-06-20T21:01:16.879Z,20.00
2018-06-20T21:03:45.360Z,19.80
2018-06-20T21:06:13.832Z,19.70
2018-06-20T21:08:42.296Z,19.70
2018-06-20T21:11:10.718Z,19.70
2018-06-20T21:13:39.145Z,19.60
2018-06-20T21:16:07.570Z,19.60
2018-06-20T21:18:35.989Z,19.50
2018-06-20T21:21:04.438Z,19.50
2018-06-20T21:23:32.866Z,19.50
2018-06-20T21:26:01.333Z,19.40
2018-06-20T21:28:29.760Z,19.40
2018-06-20T21:30:58.344Z,19.30
2018-06-20T21:33:26.790Z,19.20
2018-06-20T21:35:55.231Z,19.20
2018-06-20T21:38:23.653Z,19.20
2018-06-20T21:40:52.109Z,19.20
2018-06-20T21:43:20.544Z,19.10
2018-06-20T21:45:48.978Z,19.10
2018-06-20T21:48:17.405Z,19.00
2018-06-20T21:50:45.842Z,18.90
2018-06-20T21:53:14.274Z,18.80
2018-06-20T21:55:42.718Z,18.80
2018-06-20T21:58:11.125Z,18.70
2018-06-20T22:00:39.573Z,18.80
2018-06-20T22:03:08.016Z,18.70
2018-06-20T22:08:04.590Z,18.70
2018-06-20T22:10:33.022Z,18.70
2018-06-20T22:13:01.471Z,18.60
2018-06-20T22:15:29.926Z,18.60
2018-06-20T22:20:26.505Z,18.60
2018-06-20T22:22:55.085Z,18.60
2018-06-20T22:25:23.545Z,18.50
2018-06-20T22:27:51.990Z,18.50
2018-06-20T22:30:20.425Z,18.40
2018-06-20T22:32:48.918Z,18.30
2018-06-20T22:35:17.329Z,18.20
2018-06-20T22:37:45.765Z,18.20
2018-06-20T22:40:14.190Z,18.20
2018-06-20T22:42:42.631Z,18.20
2018-06-20T22:45:11.058Z,18.20
2018-06-20T22:50:07.639Z,18.10
2018-06-20T22:52:36.095Z,18.10
2018-06-20T22:55:04.601Z,18.10
2018-06-20T22:57:33.037Z,18.00
2018-06-20T23:00:01.496Z,18.00
2018-06-20T23:02:29.966Z,17.90
2018-06-20T23:04:58.398Z,17.90
2018-06-20T23:10:04.714Z,17.80
2018-06-20T23:12:33.165Z,17.80
2018-06-20T23:15:01.610Z,17.80
2018-06-20T23:17:30.041Z,17.70
2018-06-20T23:19:58.467Z,17.60
2018-06-20T23:22:26.901Z,17.60
2018-06-20T23:24:55.402Z,17.50
2018-06-20T23:27:23.842Z,17.50
2018-06-20T23:29:52.303Z,17.50
2018-06-20T23:32:20.728Z,17.50
2018-06-20T23:34:49.174Z,17.60
2018-06-20T23:37:17.643Z,17.60
2018-06-20T23:39:46.091Z,17.60
2018-06-20T23:42:14.502Z,17.70
2018-06-20T23:47:11.071Z,17.70
2018-06-20T23:52:07.613Z,17.70
2018-06-20T23:57:04.174Z,17.60
2018-06-20T23:59:32.609Z,17.50
